sensor_id;sensor_type;location;lat;lon;timestamp;P1;durP1;ratioP1;P2;durP2;ratioP2
51636;SDS011;37713;53.254;6.460;2023-04-24T00:00:01;7.20;;;5.00;;
51636;SDS011;37713;53.254;6.460;2023-04-24T00:04:57;10.15;;;4.38;;
51636;SDS011;37713;53.254;6.460;2023-04-24T00:07:28;7.63;;;4.45;;
51636;SDS011;37713;53.254;6.460;2023-04-24T00:09:54;12.82;;;4.57;;
51636;SDS011;37713;53.254;6.460;2023-04-24T00:12:21;9.32;;;4.50;;
51636;SDS011;37713;53.254;6.460;2023-04-24T00:14:47;10.60;;;4.60;;
51636;SDS011;37713;53.254;6.460;2023-04-24T00:17:13;9.00;;;4.28;;
51636;SDS011;37713;53.254;6.460;2023-04-24T00:19:38;7.43;;;4.22;;
51636;SDS011;37713;53.254;6.460;2023-04-24T00:22:05;10.73;;;4.32;;
51636;SDS011;37713;53.254;6.460;2023-04-24T00:24:32;6.55;;;4.05;;
51636;SDS011;37713;53.254;6.460;2023-04-24T00:26:58;8.48;;;4.50;;
51636;SDS011;37713;53.254;6.460;2023-04-24T00:29:24;8.57;;;3.95;;
51636;SDS011;37713;53.254;6.460;2023-04-24T00:31:50;15.63;;;4.70;;
51636;SDS011;37713;53.254;6.460;2023-04-24T00:34:16;8.82;;;4.65;;
51636;SDS011;37713;53.254;6.460;2023-04-24T00:36:43;8.35;;;4.10;;
51636;SDS011;37713;53.254;6.460;2023-04-24T00:39:09;7.28;;;3.92;;
51636;SDS011;37713;53.254;6.460;2023-04-24T00:41:35;63.22;;;35.40;;
51636;SDS011;37713;53.254;6.460;2023-04-24T00:44:01;11.68;;;7.07;;
51636;SDS011;37713;53.254;6.460;2023-04-24T00:46:27;15.35;;;5.25;;
51636;SDS011;37713;53.254;6.460;2023-04-24T00:48:55;14.23;;;4.50;;
51636;SDS011;37713;53.254;6.460;2023-04-24T00:51:21;9.13;;;4.10;;
51636;SDS011;37713;53.254;6.460;2023-04-24T00:53:49;10.00;;;4.10;;
51636;SDS011;37713;53.254;6.460;2023-04-24T00:56:16;7.63;;;3.50;;
51636;SDS011;37713;53.254;6.460;2023-04-24T00:58:43;10.23;;;3.50;;
51636;SDS011;37713;53.254;6.460;2023-04-24T01:01:09;9.68;;;2.90;;
51636;SDS011;37713;53.254;6.460;2023-04-24T01:03:36;5.03;;;2.50;;
51636;SDS011;37713;53.254;6.460;2023-04-24T01:06:03;7.55;;;2.63;;
51636;SDS011;37713;53.254;6.460;2023-04-24T01:08:30;3.53;;;2.30;;
51636;SDS011;37713;53.254;6.460;2023-04-24T01:10:56;11.43;;;2.30;;
51636;SDS011;37713;53.254;6.460;2023-04-24T01:13:23;6.20;;;2.33;;
51636;SDS011;37713;53.254;6.460;2023-04-24T01:15:49;3.83;;;1.90;;
51636;SDS011;37713;53.254;6.460;2023-04-24T01:18:15;4.90;;;2.10;;
51636;SDS011;37713;53.254;6.460;2023-04-24T01:20:41;4.88;;;2.15;;
51636;SDS011;37713;53.254;6.460;2023-04-24T01:23:09;6.57;;;2.00;;
51636;SDS011;37713;53.254;6.460;2023-04-24T01:25:35;5.88;;;1.88;;
51636;SDS011;37713;53.254;6.460;2023-04-24T01:28:01;6.35;;;1.85;;
51636;SDS011;37713;53.254;6.460;2023-04-24T01:30:29;5.10;;;1.70;;
51636;SDS011;37713;53.254;6.460;2023-04-24T01:32:56;6.45;;;2.00;;
51636;SDS011;37713;53.254;6.460;2023-04-24T01:35:23;10.13;;;1.70;;
51636;SDS011;37713;53.254;6.460;2023-04-24T01:37:50;2.33;;;1.40;;
51636;SDS011;37713;53.254;6.460;2023-04-24T01:40:15;4.25;;;1.60;;
51636;SDS011;37713;53.254;6.460;2023-04-24T01:42:41;3.30;;;1.70;;
51636;SDS011;37713;53.254;6.460;2023-04-24T01:45:07;6.72;;;1.70;;
51636;SDS011;37713;53.254;6.460;2023-04-24T01:47:36;3.22;;;1.60;;
51636;SDS011;37713;53.254;6.460;2023-04-24T01:50:03;3.03;;;1.50;;
51636;SDS011;37713;53.254;6.460;2023-04-24T01:52:30;3.38;;;1.80;;
51636;SDS011;37713;53.254;6.460;2023-04-24T01:55:01;5.75;;;1.67;;
51636;SDS011;37713;53.254;6.460;2023-04-24T01:57:29;3.53;;;1.70;;
51636;SDS011;37713;53.254;6.460;2023-04-24T01:59:56;3.28;;;1.67;;
51636;SDS011;37713;53.254;6.460;2023-04-24T02:02:22;4.95;;;1.60;;
51636;SDS011;37713;53.254;6.460;2023-04-24T02:04:49;5.63;;;2.00;;
51636;SDS011;37713;53.254;6.460;2023-04-24T02:07:15;4.53;;;1.92;;
51636;SDS011;37713;53.254;6.460;2023-04-24T02:09:41;8.90;;;2.53;;
51636;SDS011;37713;53.254;6.460;2023-04-24T02:12:07;5.30;;;1.88;;
51636;SDS011;37713;53.254;6.460;2023-04-24T02:14:33;4.13;;;2.00;;
51636;SDS011;37713;53.254;6.460;2023-04-24T02:16:59;7.10;;;1.90;;
51636;SDS011;37713;53.254;6.460;2023-04-24T02:19:25;3.67;;;2.17;;
51636;SDS011;37713;53.254;6.460;2023-04-24T02:21:51;6.90;;;2.15;;
51636;SDS011;37713;53.254;6.460;2023-04-24T02:24:17;4.20;;;2.15;;
51636;SDS011;37713;53.254;6.460;2023-04-24T02:26:43;6.57;;;2.20;;
51636;SDS011;37713;53.254;6.460;2023-04-24T02:29:09;6.10;;;2.55;;
51636;SDS011;37713;53.254;6.460;2023-04-24T02:31:34;4.00;;;2.50;;
51636;SDS011;37713;53.254;6.460;2023-04-24T02:34:00;8.68;;;2.58;;
51636;SDS011;37713;53.254;6.460;2023-04-24T02:36:26;5.60;;;3.78;;
51636;SDS011;37713;53.254;6.460;2023-04-24T02:38:52;4.50;;;2.70;;
51636;SDS011;37713;53.254;6.460;2023-04-24T02:41:17;5.72;;;3.35;;
51636;SDS011;37713;53.254;6.460;2023-04-24T02:43:43;4.93;;;3.05;;
51636;SDS011;37713;53.254;6.460;2023-04-24T02:46:09;5.35;;;3.15;;
51636;SDS011;37713;53.254;6.460;2023-04-24T02:48:35;4.95;;;3.47;;
51636;SDS011;37713;53.254;6.460;2023-04-24T02:51:01;9.85;;;3.80;;
51636;SDS011;37713;53.254;6.460;2023-04-24T02:53:27;7.20;;;4.20;;
51636;SDS011;37713;53.254;6.460;2023-04-24T02:55:55;7.75;;;4.05;;
51636;SDS011;37713;53.254;6.460;2023-04-24T02:58:20;8.93;;;4.00;;
51636;SDS011;37713;53.254;6.460;2023-04-24T03:00:46;6.53;;;4.50;;
51636;SDS011;37713;53.254;6.460;2023-04-24T03:03:12;6.70;;;3.88;;
51636;SDS011;37713;53.254;6.460;2023-04-24T03:05:38;7.07;;;4.43;;
51636;SDS011;37713;53.254;6.460;2023-04-24T03:08:04;7.78;;;4.47;;
51636;SDS011;37713;53.254;6.460;2023-04-24T03:10:31;7.30;;;4.78;;
51636;SDS011;37713;53.254;6.460;2023-04-24T03:12:57;9.38;;;4.95;;
51636;SDS011;37713;53.254;6.460;2023-04-24T03:15:23;9.93;;;5.10;;
51636;SDS011;37713;53.254;6.460;2023-04-24T03:17:49;10.07;;;5.30;;
51636;SDS011;37713;53.254;6.460;2023-04-24T03:20:14;8.48;;;5.05;;
51636;SDS011;37713;53.254;6.460;2023-04-24T03:22:40;11.02;;;5.72;;
51636;SDS011;37713;53.254;6.460;2023-04-24T03:25:06;8.98;;;6.00;;
51636;SDS011;37713;53.254;6.460;2023-04-24T03:27:34;7.70;;;5.80;;
51636;SDS011;37713;53.254;6.460;2023-04-24T03:30:00;8.45;;;6.20;;
51636;SDS011;37713;53.254;6.460;2023-04-24T03:32:26;9.13;;;6.18;;
51636;SDS011;37713;53.254;6.460;2023-04-24T03:34:52;11.40;;;6.82;;
51636;SDS011;37713;53.254;6.460;2023-04-24T03:37:18;9.32;;;6.25;;
51636;SDS011;37713;53.254;6.460;2023-04-24T03:39:44;10.80;;;6.80;;
51636;SDS011;37713;53.254;6.460;2023-04-24T03:42:10;8.52;;;6.55;;
51636;SDS011;37713;53.254;6.460;2023-04-24T03:44:36;10.38;;;7.03;;
51636;SDS011;37713;53.254;6.460;2023-04-24T03:47:01;12.32;;;6.78;;
51636;SDS011;37713;53.254;6.460;2023-04-24T03:49:27;12.80;;;8.07;;
51636;SDS011;37713;53.254;6.460;2023-04-24T03:51:53;10.90;;;7.43;;
51636;SDS011;37713;53.254;6.460;2023-04-24T03:54:19;10.77;;;7.82;;
51636;SDS011;37713;53.254;6.460;2023-04-24T03:56:45;13.55;;;8.27;;
51636;SDS011;37713;53.254;6.460;2023-04-24T03:59:11;10.90;;;7.78;;
51636;SDS011;37713;53.254;6.460;2023-04-24T04:01:37;14.95;;;9.18;;
51636;SDS011;37713;53.254;6.460;2023-04-24T04:04:03;14.30;;;9.10;;
51636;SDS011;37713;53.254;6.460;2023-04-24T04:06:29;13.00;;;8.60;;
51636;SDS011;37713;53.254;6.460;2023-04-24T04:08:58;12.57;;;8.60;;
51636;SDS011;37713;53.254;6.460;2023-04-24T04:11:24;16.40;;;9.35;;
51636;SDS011;37713;53.254;6.460;2023-04-24T04:13:50;14.52;;;9.57;;
51636;SDS011;37713;53.254;6.460;2023-04-24T04:16:16;12.85;;;9.23;;
51636;SDS011;37713;53.254;6.460;2023-04-24T04:18:43;13.02;;;9.95;;
51636;SDS011;37713;53.254;6.460;2023-04-24T04:21:09;16.35;;;10.63;;
51636;SDS011;37713;53.254;6.460;2023-04-24T04:23:35;15.00;;;10.30;;
51636;SDS011;37713;53.254;6.460;2023-04-24T04:26:01;14.73;;;10.43;;
51636;SDS011;37713;53.254;6.460;2023-04-24T04:28:28;18.85;;;11.70;;
51636;SDS011;37713;53.254;6.460;2023-04-24T04:30:56;16.65;;;11.27;;
51636;SDS011;37713;53.254;6.460;2023-04-24T04:33:23;14.57;;;10.82;;
51636;SDS011;37713;53.254;6.460;2023-04-24T04:35:50;14.93;;;10.77;;
51636;SDS011;37713;53.254;6.460;2023-04-24T04:38:21;17.02;;;10.60;;
51636;SDS011;37713;53.254;6.460;2023-04-24T04:40:48;10.02;;;7.07;;
51636;SDS011;37713;53.254;6.460;2023-04-24T04:43:14;10.55;;;7.00;;
51636;SDS011;37713;53.254;6.460;2023-04-24T04:45:42;8.38;;;4.78;;
51636;SDS011;37713;53.254;6.460;2023-04-24T04:48:10;8.80;;;4.20;;
51636;SDS011;37713;53.254;6.460;2023-04-24T04:50:38;9.13;;;4.10;;
51636;SDS011;37713;53.254;6.460;2023-04-24T04:53:04;8.32;;;4.00;;
51636;SDS011;37713;53.254;6.460;2023-04-24T04:55:30;6.32;;;3.58;;
51636;SDS011;37713;53.254;6.460;2023-04-24T04:57:56;7.10;;;3.40;;
51636;SDS011;37713;53.254;6.460;2023-04-24T05:00:22;6.90;;;3.30;;
51636;SDS011;37713;53.254;6.460;2023-04-24T05:02:51;5.40;;;3.00;;
51636;SDS011;37713;53.254;6.460;2023-04-24T05:05:17;5.88;;;3.17;;
51636;SDS011;37713;53.254;6.460;2023-04-24T05:07:43;7.40;;;3.67;;
51636;SDS011;37713;53.254;6.460;2023-04-24T05:10:09;6.70;;;3.80;;
51636;SDS011;37713;53.254;6.460;2023-04-24T05:12:36;6.93;;;3.60;;
51636;SDS011;37713;53.254;6.460;2023-04-24T05:15:01;6.60;;;3.45;;
51636;SDS011;37713;53.254;6.460;2023-04-24T05:17:28;6.43;;;3.67;;
51636;SDS011;37713;53.254;6.460;2023-04-24T05:19:54;6.97;;;4.40;;
51636;SDS011;37713;53.254;6.460;2023-04-24T05:22:20;7.57;;;4.80;;
51636;SDS011;37713;53.254;6.460;2023-04-24T05:24:46;7.32;;;4.60;;
51636;SDS011;37713;53.254;6.460;2023-04-24T05:27:13;6.43;;;3.97;;
51636;SDS011;37713;53.254;6.460;2023-04-24T05:29:38;6.80;;;4.10;;
51636;SDS011;37713;53.254;6.460;2023-04-24T05:32:05;8.30;;;3.47;;
51636;SDS011;37713;53.254;6.460;2023-04-24T05:34:31;9.68;;;3.30;;
51636;SDS011;37713;53.254;6.460;2023-04-24T05:36:57;7.05;;;2.90;;
51636;SDS011;37713;53.254;6.460;2023-04-24T05:39:23;9.52;;;3.22;;
51636;SDS011;37713;53.254;6.460;2023-04-24T05:41:50;6.82;;;2.80;;
51636;SDS011;37713;53.254;6.460;2023-04-24T05:44:16;6.72;;;3.22;;
51636;SDS011;37713;53.254;6.460;2023-04-24T05:46:42;7.80;;;3.25;;
51636;SDS011;37713;53.254;6.460;2023-04-24T05:49:08;6.30;;;2.80;;
51636;SDS011;37713;53.254;6.460;2023-04-24T05:51:34;7.47;;;3.53;;
51636;SDS011;37713;53.254;6.460;2023-04-24T05:54:00;7.72;;;3.60;;
51636;SDS011;37713;53.254;6.460;2023-04-24T05:56:27;7.00;;;4.03;;
51636;SDS011;37713;53.254;6.460;2023-04-24T05:58:54;8.77;;;3.28;;
51636;SDS011;37713;53.254;6.460;2023-04-24T06:01:20;8.80;;;3.42;;
51636;SDS011;37713;53.254;6.460;2023-04-24T06:03:46;6.78;;;3.65;;
51636;SDS011;37713;53.254;6.460;2023-04-24T06:06:12;8.02;;;3.67;;
51636;SDS011;37713;53.254;6.460;2023-04-24T06:08:39;8.90;;;4.32;;
51636;SDS011;37713;53.254;6.460;2023-04-24T06:11:04;8.07;;;4.40;;
51636;SDS011;37713;53.254;6.460;2023-04-24T06:13:30;9.57;;;4.55;;
51636;SDS011;37713;53.254;6.460;2023-04-24T06:15:56;9.07;;;5.10;;
51636;SDS011;37713;53.254;6.460;2023-04-24T06:18:22;8.35;;;4.90;;
51636;SDS011;37713;53.254;6.460;2023-04-24T06:20:47;10.50;;;5.32;;
51636;SDS011;37713;53.254;6.460;2023-04-24T06:23:13;13.05;;;5.68;;
51636;SDS011;37713;53.254;6.460;2023-04-24T06:25:39;11.38;;;5.20;;
51636;SDS011;37713;53.254;6.460;2023-04-24T06:28:05;9.35;;;5.07;;
51636;SDS011;37713;53.254;6.460;2023-04-24T06:30:31;7.78;;;4.80;;
51636;SDS011;37713;53.254;6.460;2023-04-24T06:32:56;9.95;;;5.40;;
51636;SDS011;37713;53.254;6.460;2023-04-24T06:35:22;11.48;;;4.97;;
51636;SDS011;37713;53.254;6.460;2023-04-24T06:37:48;8.13;;;4.60;;
51636;SDS011;37713;53.254;6.460;2023-04-24T06:40:14;8.82;;;3.65;;
51636;SDS011;37713;53.254;6.460;2023-04-24T06:42:40;10.55;;;4.95;;
51636;SDS011;37713;53.254;6.460;2023-04-24T06:45:06;9.23;;;3.60;;
51636;SDS011;37713;53.254;6.460;2023-04-24T06:47:32;10.18;;;4.22;;
51636;SDS011;37713;53.254;6.460;2023-04-24T06:49:58;5.05;;;2.50;;
51636;SDS011;37713;53.254;6.460;2023-04-24T06:52:24;5.72;;;2.33;;
51636;SDS011;37713;53.254;6.460;2023-04-24T06:54:50;5.20;;;2.28;;
51636;SDS011;37713;53.254;6.460;2023-04-24T06:57:17;4.65;;;2.08;;
51636;SDS011;37713;53.254;6.460;2023-04-24T06:59:43;7.18;;;2.45;;
51636;SDS011;37713;53.254;6.460;2023-04-24T07:02:09;5.68;;;2.10;;
51636;SDS011;37713;53.254;6.460;2023-04-24T07:04:35;3.72;;;1.65;;
51636;SDS011;37713;53.254;6.460;2023-04-24T07:07:00;7.03;;;2.15;;
51636;SDS011;37713;53.254;6.460;2023-04-24T07:09:27;8.48;;;2.35;;
51636;SDS011;37713;53.254;6.460;2023-04-24T07:11:53;7.03;;;2.40;;
51636;SDS011;37713;53.254;6.460;2023-04-24T07:14:22;4.13;;;2.30;;
51636;SDS011;37713;53.254;6.460;2023-04-24T07:16:48;5.65;;;2.40;;
51636;SDS011;37713;53.254;6.460;2023-04-24T07:19:14;7.80;;;2.70;;
51636;SDS011;37713;53.254;6.460;2023-04-24T07:21:40;5.82;;;2.83;;
51636;SDS011;37713;53.254;6.460;2023-04-24T07:24:06;6.55;;;3.10;;
51636;SDS011;37713;53.254;6.460;2023-04-24T07:26:35;8.52;;;3.50;;
51636;SDS011;37713;53.254;6.460;2023-04-24T07:29:02;8.13;;;3.35;;
51636;SDS011;37713;53.254;6.460;2023-04-24T07:31:28;6.75;;;2.85;;
51636;SDS011;37713;53.254;6.460;2023-04-24T07:33:54;10.23;;;2.85;;
51636;SDS011;37713;53.254;6.460;2023-04-24T07:36:23;10.98;;;5.15;;
51636;SDS011;37713;53.254;6.460;2023-04-24T07:38:52;7.80;;;3.10;;
51636;SDS011;37713;53.254;6.460;2023-04-24T07:41:18;10.15;;;3.65;;
51636;SDS011;37713;53.254;6.460;2023-04-24T07:43:44;8.20;;;3.40;;
51636;SDS011;37713;53.254;6.460;2023-04-24T07:46:10;8.45;;;3.35;;
51636;SDS011;37713;53.254;6.460;2023-04-24T07:48:36;11.77;;;4.63;;
51636;SDS011;37713;53.254;6.460;2023-04-24T07:51:02;13.85;;;6.00;;
51636;SDS011;37713;53.254;6.460;2023-04-24T07:53:28;11.60;;;6.22;;
51636;SDS011;37713;53.254;6.460;2023-04-24T07:55:56;15.13;;;7.60;;
51636;SDS011;37713;53.254;6.460;2023-04-24T07:58:22;17.17;;;9.13;;
51636;SDS011;37713;53.254;6.460;2023-04-24T08:00:47;17.70;;;9.32;;
51636;SDS011;37713;53.254;6.460;2023-04-24T08:03:13;24.13;;;11.82;;
51636;SDS011;37713;53.254;6.460;2023-04-24T08:05:40;23.77;;;12.55;;
51636;SDS011;37713;53.254;6.460;2023-04-24T08:08:06;24.25;;;13.30;;
51636;SDS011;37713;53.254;6.460;2023-04-24T08:10:33;26.58;;;14.38;;
51636;SDS011;37713;53.254;6.460;2023-04-24T08:12:59;25.48;;;13.88;;
51636;SDS011;37713;53.254;6.460;2023-04-24T08:15:24;30.38;;;13.98;;
51636;SDS011;37713;53.254;6.460;2023-04-24T08:17:51;26.23;;;13.90;;
51636;SDS011;37713;53.254;6.460;2023-04-24T08:20:17;28.67;;;14.13;;
51636;SDS011;37713;53.254;6.460;2023-04-24T08:22:43;23.25;;;13.23;;
51636;SDS011;37713;53.254;6.460;2023-04-24T08:25:09;24.25;;;13.82;;
51636;SDS011;37713;53.254;6.460;2023-04-24T08:27:36;25.20;;;13.13;;
51636;SDS011;37713;53.254;6.460;2023-04-24T08:30:02;21.45;;;12.80;;
51636;SDS011;37713;53.254;6.460;2023-04-24T08:32:29;23.83;;;12.18;;
51636;SDS011;37713;53.254;6.460;2023-04-24T08:34:58;18.85;;;11.18;;
51636;SDS011;37713;53.254;6.460;2023-04-24T08:37:25;21.17;;;10.55;;
51636;SDS011;37713;53.254;6.460;2023-04-24T08:39:52;20.02;;;10.88;;
51636;SDS011;37713;53.254;6.460;2023-04-24T08:42:18;19.38;;;11.07;;
51636;SDS011;37713;53.254;6.460;2023-04-24T08:44:45;29.00;;;16.45;;
51636;SDS011;37713;53.254;6.460;2023-04-24T08:47:11;17.52;;;10.52;;
51636;SDS011;37713;53.254;6.460;2023-04-24T08:49:38;21.10;;;11.55;;
51636;SDS011;37713;53.254;6.460;2023-04-24T08:52:06;19.35;;;10.13;;
51636;SDS011;37713;53.254;6.460;2023-04-24T08:54:35;18.08;;;10.43;;
51636;SDS011;37713;53.254;6.460;2023-04-24T08:57:02;20.95;;;10.52;;
51636;SDS011;37713;53.254;6.460;2023-04-24T08:59:29;19.23;;;11.27;;
51636;SDS011;37713;53.254;6.460;2023-04-24T09:01:55;20.10;;;11.20;;
51636;SDS011;37713;53.254;6.460;2023-04-24T09:04:22;21.73;;;11.57;;
51636;SDS011;37713;53.254;6.460;2023-04-24T09:06:55;18.77;;;10.90;;
51636;SDS011;37713;53.254;6.460;2023-04-24T09:09:22;17.25;;;9.60;;
51636;SDS011;37713;53.254;6.460;2023-04-24T09:11:50;15.82;;;8.65;;
51636;SDS011;37713;53.254;6.460;2023-04-24T09:14:18;16.80;;;9.20;;
51636;SDS011;37713;53.254;6.460;2023-04-24T09:16:45;16.77;;;8.50;;
51636;SDS011;37713;53.254;6.460;2023-04-24T09:19:12;16.42;;;8.30;;
51636;SDS011;37713;53.254;6.460;2023-04-24T09:21:38;15.75;;;7.47;;
51636;SDS011;37713;53.254;6.460;2023-04-24T09:24:05;15.43;;;8.10;;
51636;SDS011;37713;53.254;6.460;2023-04-24T09:26:34;14.75;;;8.00;;
51636;SDS011;37713;53.254;6.460;2023-04-24T09:29:02;16.77;;;7.93;;
51636;SDS011;37713;53.254;6.460;2023-04-24T09:31:29;19.48;;;7.93;;
51636;SDS011;37713;53.254;6.460;2023-04-24T09:33:59;15.55;;;7.50;;
51636;SDS011;37713;53.254;6.460;2023-04-24T09:36:33;15.32;;;7.32;;
51636;SDS011;37713;53.254;6.460;2023-04-24T09:39:07;16.02;;;6.88;;
51636;SDS011;37713;53.254;6.460;2023-04-24T09:41:43;16.65;;;6.43;;
51636;SDS011;37713;53.254;6.460;2023-04-24T09:44:16;13.90;;;6.07;;
51636;SDS011;37713;53.254;6.460;2023-04-24T09:46:48;14.85;;;5.90;;
51636;SDS011;37713;53.254;6.460;2023-04-24T09:51:42;15.07;;;5.65;;
51636;SDS011;37713;53.254;6.460;2023-04-24T09:54:15;13.13;;;6.10;;
51636;SDS011;37713;53.254;6.460;2023-04-24T09:56:44;14.20;;;7.05;;
51636;SDS011;37713;53.254;6.460;2023-04-24T09:59:12;10.75;;;4.85;;
51636;SDS011;37713;53.254;6.460;2023-04-24T10:01:38;8.35;;;4.70;;
51636;SDS011;37713;53.254;6.460;2023-04-24T10:04:14;14.20;;;4.38;;
51636;SDS011;37713;53.254;6.460;2023-04-24T10:06:42;9.27;;;3.95;;
51636;SDS011;37713;53.254;6.460;2023-04-24T10:09:08;10.13;;;3.70;;
51636;SDS011;37713;53.254;6.460;2023-04-24T10:11:36;11.57;;;3.42;;
51636;SDS011;37713;53.254;6.460;2023-04-24T10:14:02;12.85;;;4.07;;
51636;SDS011;37713;53.254;6.460;2023-04-24T10:16:29;10.75;;;3.90;;
51636;SDS011;37713;53.254;6.460;2023-04-24T10:18:57;11.05;;;4.18;;
51636;SDS011;37713;53.254;6.460;2023-04-24T10:21:25;7.63;;;3.53;;
51636;SDS011;37713;53.254;6.460;2023-04-24T10:23:52;9.02;;;3.33;;
51636;SDS011;37713;53.254;6.460;2023-04-24T10:26:19;11.27;;;3.80;;
51636;SDS011;37713;53.254;6.460;2023-04-24T10:28:45;8.98;;;3.53;;
51636;SDS011;37713;53.254;6.460;2023-04-24T10:31:12;8.07;;;3.10;;
51636;SDS011;37713;53.254;6.460;2023-04-24T10:33:42;8.88;;;3.55;;
51636;SDS011;37713;53.254;6.460;2023-04-24T10:36:09;9.85;;;3.38;;
51636;SDS011;37713;53.254;6.460;2023-04-24T10:38:36;8.75;;;3.70;;
51636;SDS011;37713;53.254;6.460;2023-04-24T10:41:09;9.85;;;3.38;;
51636;SDS011;37713;53.254;6.460;2023-04-24T10:43:39;11.48;;;3.70;;
51636;SDS011;37713;53.254;6.460;2023-04-24T10:46:06;12.43;;;3.10;;
51636;SDS011;37713;53.254;6.460;2023-04-24T10:48:32;8.18;;;2.67;;
51636;SDS011;37713;53.254;6.460;2023-04-24T10:50:59;11.52;;;3.00;;
51636;SDS011;37713;53.254;6.460;2023-04-24T10:53:28;11.38;;;3.22;;
51636;SDS011;37713;53.254;6.460;2023-04-24T10:58:41;9.35;;;2.63;;
51636;SDS011;37713;53.254;6.460;2023-04-24T11:01:44;7.35;;;2.33;;
51636;SDS011;37713;53.254;6.460;2023-04-24T11:04:03;10.00;;;2.30;;
51636;SDS011;37713;53.254;6.460;2023-04-24T11:06:29;9.82;;;2.60;;
51636;SDS011;37713;53.254;6.460;2023-04-24T11:09:03;11.43;;;2.70;;
51636;SDS011;37713;53.254;6.460;2023-04-24T11:11:31;10.20;;;2.72;;
51636;SDS011;37713;53.254;6.460;2023-04-24T11:19:23;7.97;;;2.63;;
51636;SDS011;37713;53.254;6.460;2023-04-24T11:24:30;10.68;;;2.47;;
51636;SDS011;37713;53.254;6.460;2023-04-24T11:29:46;13.32;;;2.80;;
51636;SDS011;37713;53.254;6.460;2023-04-24T11:35:05;6.53;;;1.73;;
51636;SDS011;37713;53.254;6.460;2023-04-24T11:37:39;7.68;;;2.00;;
51636;SDS011;37713;53.254;6.460;2023-04-24T11:40:07;8.18;;;2.55;;
51636;SDS011;37713;53.254;6.460;2023-04-24T11:42:35;10.80;;;2.15;;
51636;SDS011;37713;53.254;6.460;2023-04-24T11:45:01;9.18;;;2.15;;
51636;SDS011;37713;53.254;6.460;2023-04-24T11:47:32;5.50;;;1.52;;
51636;SDS011;37713;53.254;6.460;2023-04-24T11:49:59;10.73;;;2.20;;
51636;SDS011;37713;53.254;6.460;2023-04-24T11:52:25;8.95;;;2.03;;
51636;SDS011;37713;53.254;6.460;2023-04-24T11:54:51;10.45;;;1.95;;
51636;SDS011;37713;53.254;6.460;2023-04-24T11:57:21;10.45;;;1.73;;
51636;SDS011;37713;53.254;6.460;2023-04-24T11:59:49;8.52;;;2.40;;
51636;SDS011;37713;53.254;6.460;2023-04-24T12:02:24;10.07;;;2.20;;
51636;SDS011;37713;53.254;6.460;2023-04-24T12:04:51;8.63;;;2.00;;
51636;SDS011;37713;53.254;6.460;2023-04-24T12:07:21;9.38;;;1.95;;
51636;SDS011;37713;53.254;6.460;2023-04-24T12:09:56;5.57;;;1.52;;
51636;SDS011;37713;53.254;6.460;2023-04-24T12:12:28;10.55;;;1.88;;
51636;SDS011;37713;53.254;6.460;2023-04-24T12:14:55;11.35;;;2.08;;
51636;SDS011;37713;53.254;6.460;2023-04-24T12:17:25;8.77;;;1.60;;
51636;SDS011;37713;53.254;6.460;2023-04-24T12:20:00;6.18;;;1.90;;
51636;SDS011;37713;53.254;6.460;2023-04-24T12:22:43;6.68;;;1.40;;
51636;SDS011;37713;53.254;6.460;2023-04-24T12:25:15;5.97;;;1.90;;
51636;SDS011;37713;53.254;6.460;2023-04-24T12:27:45;3.58;;;1.30;;
51636;SDS011;37713;53.254;6.460;2023-04-24T12:30:16;5.43;;;1.40;;
51636;SDS011;37713;53.254;6.460;2023-04-24T12:32:47;6.03;;;1.50;;
51636;SDS011;37713;53.254;6.460;2023-04-24T12:35:18;4.97;;;1.38;;
51636;SDS011;37713;53.254;6.460;2023-04-24T12:37:45;6.70;;;1.48;;
51636;SDS011;37713;53.254;6.460;2023-04-24T12:40:12;5.90;;;1.40;;
51636;SDS011;37713;53.254;6.460;2023-04-24T12:42:45;5.95;;;1.55;;
51636;SDS011;37713;53.254;6.460;2023-04-24T12:45:13;5.35;;;1.30;;
51636;SDS011;37713;53.254;6.460;2023-04-24T12:47:40;4.72;;;1.30;;
51636;SDS011;37713;53.254;6.460;2023-04-24T12:50:07;7.28;;;1.20;;
51636;SDS011;37713;53.254;6.460;2023-04-24T12:52:34;8.40;;;1.20;;
51636;SDS011;37713;53.254;6.460;2023-04-24T12:55:00;8.10;;;1.50;;
51636;SDS011;37713;53.254;6.460;2023-04-24T12:57:27;6.30;;;1.40;;
51636;SDS011;37713;53.254;6.460;2023-04-24T12:59:55;6.57;;;1.50;;
51636;SDS011;37713;53.254;6.460;2023-04-24T13:02:23;5.90;;;1.15;;
51636;SDS011;37713;53.254;6.460;2023-04-24T13:04:49;9.95;;;1.52;;
51636;SDS011;37713;53.254;6.460;2023-04-24T13:07:16;9.45;;;1.58;;
51636;SDS011;37713;53.254;6.460;2023-04-24T13:09:42;5.32;;;1.10;;
51636;SDS011;37713;53.254;6.460;2023-04-24T13:12:10;6.80;;;1.10;;
51636;SDS011;37713;53.254;6.460;2023-04-24T13:14:36;7.82;;;1.25;;
51636;SDS011;37713;53.254;6.460;2023-04-24T13:17:03;9.57;;;1.50;;
51636;SDS011;37713;53.254;6.460;2023-04-24T13:19:29;5.72;;;1.20;;
51636;SDS011;37713;53.254;6.460;2023-04-24T13:22:00;7.97;;;1.55;;
51636;SDS011;37713;53.254;6.460;2023-04-24T13:24:26;6.32;;;1.00;;
51636;SDS011;37713;53.254;6.460;2023-04-24T13:26:52;5.75;;;1.00;;
51636;SDS011;37713;53.254;6.460;2023-04-24T13:29:18;4.32;;;0.95;;
51636;SDS011;37713;53.254;6.460;2023-04-24T13:31:44;6.15;;;1.08;;
51636;SDS011;37713;53.254;6.460;2023-04-24T13:34:12;6.00;;;0.90;;
51636;SDS011;37713;53.254;6.460;2023-04-24T13:36:38;3.28;;;0.60;;
51636;SDS011;37713;53.254;6.460;2023-04-24T13:39:04;3.72;;;0.82;;
51636;SDS011;37713;53.254;6.460;2023-04-24T13:41:32;4.82;;;0.90;;
51636;SDS011;37713;53.254;6.460;2023-04-24T13:43:58;6.47;;;0.88;;
51636;SDS011;37713;53.254;6.460;2023-04-24T13:46:25;1.95;;;0.70;;
51636;SDS011;37713;53.254;6.460;2023-04-24T13:48:51;4.70;;;1.08;;
51636;SDS011;37713;53.254;6.460;2023-04-24T13:51:17;8.85;;;1.17;;
51636;SDS011;37713;53.254;6.460;2023-04-24T13:53:43;6.00;;;1.30;;
51636;SDS011;37713;53.254;6.460;2023-04-24T13:56:09;5.53;;;1.42;;
51636;SDS011;37713;53.254;6.460;2023-04-24T13:58:37;4.50;;;1.48;;
51636;SDS011;37713;53.254;6.460;2023-04-24T14:01:03;8.63;;;1.60;;
51636;SDS011;37713;53.254;6.460;2023-04-24T14:03:29;6.82;;;1.73;;
51636;SDS011;37713;53.254;6.460;2023-04-24T14:05:55;7.53;;;1.80;;
51636;SDS011;37713;53.254;6.460;2023-04-24T14:08:21;9.65;;;2.17;;
51636;SDS011;37713;53.254;6.460;2023-04-24T14:10:47;7.70;;;1.80;;
51636;SDS011;37713;53.254;6.460;2023-04-24T14:13:13;13.18;;;2.30;;
51636;SDS011;37713;53.254;6.460;2023-04-24T14:15:39;13.15;;;2.75;;
51636;SDS011;37713;53.254;6.460;2023-04-24T14:18:05;10.48;;;2.03;;
51636;SDS011;37713;53.254;6.460;2023-04-24T14:20:31;9.50;;;1.95;;
51636;SDS011;37713;53.254;6.460;2023-04-24T14:22:57;7.75;;;1.65;;
51636;SDS011;37713;53.254;6.460;2023-04-24T14:25:26;9.68;;;2.35;;
51636;SDS011;37713;53.254;6.460;2023-04-24T14:27:51;8.40;;;2.05;;
51636;SDS011;37713;53.254;6.460;2023-04-24T14:30:18;12.93;;;2.30;;
51636;SDS011;37713;53.254;6.460;2023-04-24T14:32:44;10.93;;;2.50;;
51636;SDS011;37713;53.254;6.460;2023-04-24T14:35:10;13.77;;;2.90;;
51636;SDS011;37713;53.254;6.460;2023-04-24T14:37:36;9.63;;;2.72;;
51636;SDS011;37713;53.254;6.460;2023-04-24T14:40:02;11.65;;;2.70;;
51636;SDS011;37713;53.254;6.460;2023-04-24T14:42:30;7.75;;;2.47;;
51636;SDS011;37713;53.254;6.460;2023-04-24T14:44:56;5.72;;;1.80;;
51636;SDS011;37713;53.254;6.460;2023-04-24T14:47:22;12.20;;;2.42;;
51636;SDS011;37713;53.254;6.460;2023-04-24T14:49:48;9.00;;;2.75;;
51636;SDS011;37713;53.254;6.460;2023-04-24T14:52:14;9.63;;;2.38;;
51636;SDS011;37713;53.254;6.460;2023-04-24T14:54:41;10.82;;;2.90;;
51636;SDS011;37713;53.254;6.460;2023-04-24T14:57:07;10.82;;;2.50;;
51636;SDS011;37713;53.254;6.460;2023-04-24T14:59:33;12.75;;;2.67;;